Time,TemperatureF,DewpointF,PressureIn,WindDirection,WindDirectionDegrees,WindSpeedMPH,WindSpeedGustMPH,Humidity,HourlyPrecipIn,Conditions,Clouds,dailyrainin,SoftwareType,DateUTC
2013-03-23 00:00:00,33.4,21.0,29.79,SW,225,1.1,1.1,60,0.00,CLR,,0.00,WeatherDisplay:10.37,2013-03-23 04:00:00,
2013-03-23 00:05:00,33.8,21.8,29.79,NW,315,1.1,1.1,61,0.00,CLR,,0.00,WeatherDisplay:10.37,2013-03-23 04:05:00,
2013-03-23 00:10:00,34.2,21.7,29.79,WSW,248,0.0,0.5,60,0.00,CLR,,0.00,WeatherDisplay:10.37,2013-03-23 04:10:00,
2013-03-23 00:15:00,34.3,21.9,29.79,SW,225,1.1,1.1,60,0.00,CLR,,0.00,WeatherDisplay:10.37,2013-03-23 04:15:00,
2013-03-23 00:20:00,34.5,22.1,29.80,WSW,248,0.2,0.2,60,0.00,CLR,,0.00,WeatherDisplay:10.37,2013-03-23 04:20:00,
2013-03-23 00:25:00,34.5,22.1,29.79,SW,225,1.1,1.1,60,0.00,CLR,,0.00,WeatherDisplay:10.37,2013-03-23 04:25:00,
2013-03-23 00:30:00,34.7,22.2,29.79,West,270,0.0,0.0,60,0.00,CLR,,0.00,WeatherDisplay:10.37,2013-03-23 04:30:00,
2013-03-23 00:35:00,34.7,22.2,29.79,WSW,248,1.1,1.1,60,0.00,CLR,,0.00,WeatherDisplay:10.37,2013-03-23 04:35:00,
2013-03-23 00:40:00,34.9,22.4,29.79,WNW,292,1.1,1.1,60,0.00,CLR,,0.00,WeatherDisplay:10.37,2013-03-23 04:40:00,
2013-03-23 00:45:00,34.9,22.4,29.79,WSW,248,1.4,1.4,60,0.00,CLR,,0.00,WeatherDisplay:10.37,2013-03-23 04:45:00,
2013-03-23 00:50:00,35.1,22.6,29.79,SW,225,1.1,1.1,60,0.00,CLR,,0.00,WeatherDisplay:10.37,2013-03-23 04:50:00,
2013-03-23 00:55:00,35.2,22.7,29.79,West,270,1.1,1.1,60,0.00,CLR,,0.00,WeatherDisplay:10.37,2013-03-23 04:55:00,
2013-03-23 01:00:00,35.2,22.7,29.79,West,270,0.2,0.2,60,0.00,CLR,,0.00,WeatherDisplay:10.37,2013-03-23 05:00:00,
2013-03-23 01:05:00,35.2,22.7,29.79,North,0,2.3,2.3,60,0.00,CLR,,0.00,WeatherDisplay:10.37,2013-03-23 05:05:00,
2013-03-23 01:10:00,35.4,22.9,29.79,West,270,2.3,2.3,60,0.00,CLR,,0.00,WeatherDisplay:10.37,2013-03-23 05:10:00,
2013-03-23 01:15:00,35.4,22.9,29.79,NNE,22,1.4,1.4,60,0.00,CLR,,0.00,WeatherDisplay:10.37,2013-03-23 05:15:00,
2013-03-23 01:20:00,35.4,22.9,29.78,West,270,1.1,1.1,60,0.00,CLR,,0.00,WeatherDisplay:10.37,2013-03-23 05:20:00,
2013-03-23 01:25:00,35.6,23.1,29.78,West,270,1.1,1.1,60,0.00,CLR,,0.00,WeatherDisplay:10.37,2013-03-23 05:25:00,
2013-03-23 01:30:00,35.6,23.1,29.79,WNW,292,1.1,1.1,60,0.00,CLR,,0.00,WeatherDisplay:10.37,2013-03-23 05:30:00,
2013-03-23 01:35:00,35.6,23.1,29.78,SW,225,1.6,1.6,60,0.00,CLR,,0.00,WeatherDisplay:10.37,2013-03-23 05:35:00,
2013-03-23 01:40:00,35.6,23.1,29.78,West,270,5.9,5.9,60,0.00,CLR,,0.00,WeatherDisplay:10.37,2013-03-23 05:40:00,
2013-03-23 01:45:00,35.6,22.7,29.79,SSW,202,1.4,1.4,59,0.00,CLR,,0.00,WeatherDisplay:10.37,2013-03-23 05:45:00,
2013-03-23 01:50:00,35.6,22.7,29.79,North,0,3.5,3.5,59,0.00,CLR,,0.00,WeatherDisplay:10.37,2013-03-23 05:50:00,
2013-03-23 01:55:00,35.6,22.3,29.79,WSW,248,4.6,4.6,58,0.00,CLR,,0.00,WeatherDisplay:10.37,2013-03-23 05:55:00,
2013-03-23 02:00:00,35.6,21.4,29.79,NNW,338,5.8,5.8,56,0.00,CLR,,0.00,WeatherDisplay:10.37,2013-03-23 06:00:00,
2013-03-23 02:05:00,35.6,21.0,29.78,WSW,248,8.1,8.1,55,0.00,CLR,,0.00,WeatherDisplay:10.37,2013-03-23 06:05:00,
2013-03-23 02:10:00,35.6,21.0,29.78,NNE,22,4.6,4.6,55,0.00,CLR,,0.00,WeatherDisplay:10.37,2013-03-23 06:10:00,
2013-03-23 02:15:00,35.6,20.6,29.78,West,270,2.3,2.3,54,0.00,CLR,,0.00,WeatherDisplay:10.37,2013-03-23 06:15:00,
2013-03-23 02:20:00,35.6,21.0,29.78,WSW,248,2.3,2.3,55,0.00,CLR,,0.00,WeatherDisplay:10.37,2013-03-23 06:20:00,
2013-03-23 02:25:00,35.4,20.8,29.78,WNW,292,1.1,1.1,55,0.00,CLR,,0.00,WeatherDisplay:10.37,2013-03-23 06:25:00,
2013-03-23 02:30:00,35.4,20.8,29.79,WNW,292,1.1,1.1,55,0.00,CLR,,0.00,WeatherDisplay:10.37,2013-03-23 06:30:00,
2013-03-23 02:35:00,35.4,20.8,29.79,SSW,202,1.1,1.1,55,0.00,CLR,,0.00,WeatherDisplay:10.37,2013-03-23 06:35:00,
2013-03-23 02:40:00,35.4,20.8,29.79,WNW,292,2.3,2.3,55,0.00,CLR,,0.00,WeatherDisplay:10.37,2013-03-23 06:40:00,
2013-03-23 02:45:00,35.6,21.0,29.79,SSW,202,3.5,3.5,55,0.00,CLR,,0.00,WeatherDisplay:10.37,2013-03-23 06:45:00,
2013-03-23 02:50:00,35.6,21.0,29.79,West,270,2.3,2.3,55,0.00,CLR,,0.00,WeatherDisplay:10.37,2013-03-23 06:50:00,
2013-03-23 02:55:00,35.6,21.0,29.78,WSW,248,1.6,1.6,55,0.00,CLR,,0.00,WeatherDisplay:10.37,2013-03-23 06:55:00,
2013-03-23 03:00:00,35.4,20.4,29.78,West,270,2.3,2.3,54,0.00,CLR,,0.00,WeatherDisplay:10.37,2013-03-23 07:00:00,
2013-03-23 03:05:00,35.2,20.7,29.78,SW,225,0.0,0.0,55,0.00,CLR,,0.00,WeatherDisplay:10.37,2013-03-23 07:05:00,
2013-03-23 03:10:00,34.9,20.3,29.78,WNW,292,1.1,1.1,55,0.00,CLR,,0.00,WeatherDisplay:10.37,2013-03-23 07:10:00,
2013-03-23 03:15:00,34.9,20.3,29.77,SW,225,2.3,2.3,55,0.00,CLR,,0.00,WeatherDisplay:10.37,2013-03-23 07:15:00,
2013-03-23 03:20:00,34.7,20.2,29.77,SSW,202,3.5,3.5,55,0.00,CLR,,0.00,WeatherDisplay:10.37,2013-03-23 07:20:00,
2013-03-23 03:25:00,34.7,20.2,29.77,WSW,248,2.3,2.3,55,0.00,CLR,,0.00,WeatherDisplay:10.37,2013-03-23 07:25:00,
2013-03-23 03:30:00,34.7,20.2,29.77,NE,45,1.1,1.1,55,0.00,CLR,,0.00,WeatherDisplay:10.37,2013-03-23 07:30:00,
2013-03-23 03:35:00,34.5,20.4,29.77,WSW,248,1.1,1.1,56,0.00,CLR,,0.00,WeatherDisplay:10.37,2013-03-23 07:35:00,
2013-03-23 03:40:00,34.5,20.0,29.76,WNW,292,2.3,2.3,55,0.00,CLR,,0.00,WeatherDisplay:10.37,2013-03-23 07:40:00,
2013-03-23 03:45:00,34.5,20.0,29.76,NNW,338,2.4,2.4,55,0.00,CLR,,0.00,WeatherDisplay:10.37,2013-03-23 07:45:00,
2013-03-23 03:50:00,34.3,19.8,29.76,WSW,248,2.3,2.4,55,0.00,CLR,,0.00,WeatherDisplay:10.37,2013-03-23 07:50:00,
2013-03-23 03:55:00,34.3,19.8,29.76,WSW,248,2.3,2.3,55,0.00,CLR,,0.00,WeatherDisplay:10.37,2013-03-23 07:55:00,
2013-03-23 04:00:00,34.2,19.7,29.76,NW,315,1.1,1.1,55,0.00,CLR,,0.00,WeatherDisplay:10.37,2013-03-23 08:00:00,
2013-03-23 04:05:00,34.2,19.7,29.76,WSW,248,1.1,1.1,55,0.00,CLR,,0.00,WeatherDisplay:10.37,2013-03-23 08:05:00,
2013-03-23 04:10:00,34.0,19.5,29.76,WSW,248,1.1,1.1,55,0.00,CLR,,0.00,WeatherDisplay:10.37,2013-03-23 08:10:00,
2013-03-23 04:15:00,33.8,19.7,29.76,NW,315,1.1,1.1,56,0.00,CLR,,0.00,WeatherDisplay:10.37,2013-03-23 08:15:00,
2013-03-23 04:20:00,33.6,19.6,29.76,West,270,2.3,2.3,56,0.00,CLR,,0.00,WeatherDisplay:10.37,2013-03-23 08:20:00,
2013-03-23 04:25:00,33.4,19.4,29.76,WSW,248,2.3,2.3,56,0.00,CLR,,0.00,WeatherDisplay:10.37,2013-03-23 08:25:00,
2013-03-23 04:30:00,33.4,19.4,29.76,WSW,248,1.1,1.1,56,0.00,CLR,,0.00,WeatherDisplay:10.37,2013-03-23 08:30:00,
2013-03-23 04:35:00,33.3,19.2,29.76,WSW,248,1.1,1.1,56,0.00,CLR,,0.00,WeatherDisplay:10.37,2013-03-23 08:35:00,
2013-03-23 04:40:00,33.3,19.2,29.76,SSE,158,1.1,1.1,56,0.00,CLR,,0.00,WeatherDisplay:10.37,2013-03-23 08:40:00,
2013-03-23 04:45:00,33.1,19.1,29.76,SSE,158,0.2,0.2,56,0.00,CLR,,0.00,WeatherDisplay:10.37,2013-03-23 08:45:00,
2013-03-23 04:50:00,32.9,18.9,29.76,West,270,0.5,0.5,56,0.00,CLR,,0.00,WeatherDisplay:10.37,2013-03-23 08:50:00,
2013-03-23 04:55:00,32.7,18.7,29.77,SSW,202,1.1,0.0,56,0.00,CLR,,0.00,WeatherDisplay:10.37,2013-03-23 08:55:00,
2013-03-23 05:00:00,32.7,18.7,29.77,ENE,68,1.1,1.1,56,0.00,CLR,,0.00,WeatherDisplay:10.37,2013-03-23 09:00:00,
2013-03-23 05:05:00,32.5,18.6,29.77,WSW,248,1.1,1.1,56,0.00,CLR,,0.00,WeatherDisplay:10.37,2013-03-23 09:05:00,
2013-03-23 05:10:00,32.4,18.8,29.77,WNW,292,1.1,1.1,57,0.00,CLR,,0.00,WeatherDisplay:10.37,2013-03-23 09:10:00,
2013-03-23 05:15:00,32.5,19.0,29.77,West,270,1.1,1.1,57,0.00,CLR,,0.00,WeatherDisplay:10.37,2013-03-23 09:15:00,
2013-03-23 05:20:00,32.7,19.1,29.77,WNW,292,1.1,1.1,57,0.00,CLR,,0.00,WeatherDisplay:10.37,2013-03-23 09:20:00,
2013-03-23 05:25:00,32.7,19.1,29.77,NW,315,1.1,1.1,57,0.00,CLR,,0.00,WeatherDisplay:10.37,2013-03-23 09:25:00,
2013-03-23 05:30:00,32.7,19.1,29.77,SSW,202,1.1,1.1,57,0.00,CLR,,0.00,WeatherDisplay:10.37,2013-03-23 09:30:00,
2013-03-23 05:35:00,32.5,19.0,29.77,WSW,248,1.1,1.1,57,0.00,CLR,,0.00,WeatherDisplay:10.37,2013-03-23 09:35:00,
2013-03-23 05:40:00,32.4,18.8,29.77,WSW,248,1.1,1.1,57,0.00,CLR,,0.00,WeatherDisplay:10.37,2013-03-23 09:40:00,
2013-03-23 05:45:00,32.0,18.5,29.77,WSW,248,1.1,0.0,57,0.00,CLR,,0.00,WeatherDisplay:10.37,2013-03-23 09:45:00,
2013-03-23 05:50:00,31.8,18.7,29.77,SW,225,1.1,1.1,58,0.00,CLR,,0.00,WeatherDisplay:10.37,2013-03-23 09:50:00,
2013-03-23 05:55:00,31.8,18.7,29.77,West,270,2.3,2.3,58,0.00,CLR,,0.00,WeatherDisplay:10.37,2013-03-23 09:55:00,
2013-03-23 06:00:00,31.8,19.1,29.77,West,270,1.1,1.1,59,0.00,CLR,,0.00,WeatherDisplay:10.37,2013-03-23 10:00:00,
2013-03-23 06:05:00,32.0,18.9,29.77,WSW,248,0.0,0.5,58,0.00,CLR,,0.00,WeatherDisplay:10.37,2013-03-23 10:05:00,
2013-03-23 06:10:00,31.8,19.1,29.77,West,270,1.1,0.0,59,0.00,CLR,,0.00,WeatherDisplay:10.37,2013-03-23 10:10:00,
2013-03-23 06:15:00,31.8,19.1,29.78,West,270,0.2,0.2,59,0.00,CLR,,0.00,WeatherDisplay:10.37,2013-03-23 10:15:00,
2013-03-23 06:20:00,31.6,18.9,29.78,WSW,248,1.1,1.1,59,0.00,CLR,,0.00,WeatherDisplay:10.37,2013-03-23 10:20:00,
2013-03-23 06:25:00,31.5,18.8,29.78,SW,225,0.2,0.2,59,0.00,CLR,,0.00,WeatherDisplay:10.37,2013-03-23 10:25:00,
2013-03-23 06:30:00,31.3,18.6,29.78,WSW,248,1.1,0.0,59,0.00,CLR,,0.00,WeatherDisplay:10.37,2013-03-23 10:30:00,
2013-03-23 06:35:00,30.9,18.7,29.78,SW,225,0.0,0.0,60,0.00,CLR,,0.00,WeatherDisplay:10.37,2013-03-23 10:35:00,
2013-03-23 06:40:00,30.7,18.5,29.78,WSW,248,0.0,0.0,60,0.00,CLR,,0.00,WeatherDisplay:10.37,2013-03-23 10:40:00,
2013-03-23 06:45:00,30.6,18.3,29.78,SSW,202,0.5,0.5,60,0.00,CLR,,0.00,WeatherDisplay:10.37,2013-03-23 10:45:00,
2013-03-23 06:50:00,30.6,18.7,29.78,SE,135,0.0,0.2,61,0.00,CLR,,0.00,WeatherDisplay:10.37,2013-03-23 10:50:00,
2013-03-23 06:55:00,30.4,18.5,29.78,South,180,0.0,0.0,61,0.00,CLR,,0.00,WeatherDisplay:10.37,2013-03-23 10:55:00,
2013-03-23 07:00:00,30.2,18.7,29.78,South,180,0.0,0.0,62,0.00,CLR,,0.00,WeatherDisplay:10.37,2013-03-23 11:00:00,
2013-03-23 07:05:00,30.2,18.7,29.78,South,180,0.0,0.0,62,0.00,CLR,,0.00,WeatherDisplay:10.37,2013-03-23 11:05:00,
2013-03-23 07:10:00,30.4,19.3,29.78,West,270,2.3,2.3,63,0.00,CLR,,0.00,WeatherDisplay:10.37,2013-03-23 11:10:00,
2013-03-23 07:15:00,30.9,19.8,29.78,WNW,292,1.1,1.1,63,0.00,CLR,,0.00,WeatherDisplay:10.37,2013-03-23 11:15:00,
2013-03-23 07:20:00,31.3,19.8,29.78,NW,315,1.1,1.1,62,0.00,CLR,,0.00,WeatherDisplay:10.37,2013-03-23 11:20:00,
2013-03-23 07:25:00,31.3,19.8,29.78,NW,315,1.1,1.1,62,0.00,CLR,,0.00,WeatherDisplay:10.37,2013-03-23 11:25:00,
2013-03-23 07:30:00,31.5,19.9,29.79,WSW,248,0.0,0.2,62,0.00,CLR,,0.00,WeatherDisplay:10.37,2013-03-23 11:30:00,
2013-03-23 07:35:00,31.6,20.1,29.79,West,270,1.1,1.1,62,0.00,CLR,,0.00,WeatherDisplay:10.37,2013-03-23 11:35:00,
2013-03-23 07:40:00,31.8,20.3,29.79,WSW,248,1.1,1.1,62,0.00,CLR,,0.00,WeatherDisplay:10.37,2013-03-23 11:40:00,
2013-03-23 07:45:00,32.4,20.8,29.79,WNW,292,3.5,3.5,62,0.00,CLR,,0.00,WeatherDisplay:10.37,2013-03-23 11:45:00,
2013-03-23 07:50:00,32.7,20.7,29.79,WSW,248,2.4,2.4,61,0.00,CLR,,0.00,WeatherDisplay:10.37,2013-03-23 11:50:00,
2013-03-23 07:55:00,32.9,20.9,29.79,WSW,248,2.3,2.3,61,0.00,CLR,,0.00,WeatherDisplay:10.37,2013-03-23 11:55:00,
2013-03-23 08:00:00,33.6,21.2,29.79,WNW,292,3.1,3.1,60,0.00,CLR,,0.00,WeatherDisplay:10.37,2013-03-23 12:00:00,
2013-03-23 08:05:00,34.0,21.1,29.79,West,270,2.3,2.3,59,0.00,CLR,,0.00,WeatherDisplay:10.37,2013-03-23 12:05:00,
2013-03-23 08:10:00,34.3,21.5,29.80,WNW,292,2.3,2.3,59,0.00,CLR,,0.00,WeatherDisplay:10.37,2013-03-23 12:10:00,
2013-03-23 08:15:00,34.9,21.6,29.80,WNW,292,3.3,3.3,58,0.00,CLR,,0.00,WeatherDisplay:10.37,2013-03-23 12:15:00,
2013-03-23 08:20:00,35.2,21.5,29.80,SSW,202,4.6,4.6,57,0.00,CLR,,0.00,WeatherDisplay:10.37,2013-03-23 12:20:00,
2013-03-23 08:25:00,35.4,21.7,29.80,WSW,248,4.6,4.6,57,0.00,CLR,,0.00,WeatherDisplay:10.37,2013-03-23 12:25:00,
2013-03-23 08:30:00,35.6,21.4,29.80,WSW,248,4.6,4.6,56,0.00,CLR,,0.00,WeatherDisplay:10.37,2013-03-23 12:30:00,
2013-03-23 08:36:00,35.6,21.9,29.80,WSW,248,4.6,4.6,57,0.00,CLR,,0.00,WeatherDisplay:10.37,2013-03-23 12:36:00,
2013-03-23 08:41:00,35.8,21.6,29.80,NE,45,3.8,3.8,56,0.00,CLR,,0.00,WeatherDisplay:10.37,2013-03-23 12:41:00,
2013-03-23 08:46:00,35.8,22.0,29.79,West,270,3.5,3.5,57,0.00,CLR,,0.00,WeatherDisplay:10.37,2013-03-23 12:46:00,
2013-03-23 08:51:00,36.0,21.8,29.79,SSW,202,2.3,2.3,56,0.00,CLR,,0.00,WeatherDisplay:10.37,2013-03-23 12:51:00,
2013-03-23 08:56:00,36.3,22.1,29.79,WNW,292,4.6,4.6,56,0.00,CLR,,0.00,WeatherDisplay:10.37,2013-03-23 12:56:00,
2013-03-23 09:01:00,36.3,21.7,29.79,WNW,292,4.3,4.3,55,0.00,CLR,,0.00,WeatherDisplay:10.37,2013-03-23 13:01:00,
2013-03-23 09:06:00,36.7,22.0,29.79,WSW,248,5.2,5.2,55,0.00,CLR,,0.00,WeatherDisplay:10.37,2013-03-23 13:06:00,
2013-03-23 09:11:00,36.7,21.6,29.79,WNW,292,6.9,6.9,54,0.00,CLR,,0.00,WeatherDisplay:10.37,2013-03-23 13:11:00,
2013-03-23 09:16:00,36.9,21.7,29.79,North,0,4.6,4.6,54,0.00,CLR,,0.00,WeatherDisplay:10.37,2013-03-23 13:16:00,
2013-03-23 09:21:00,37.0,21.9,29.79,SSW,202,5.8,5.8,54,0.00,CLR,,0.00,WeatherDisplay:10.37,2013-03-23 13:21:00,
2013-03-23 09:26:00,37.0,21.9,29.79,SW,225,6.9,6.9,54,0.00,CLR,,0.00,WeatherDisplay:10.37,2013-03-23 13:26:00,
2013-03-23 09:31:00,37.2,22.1,29.79,South,180,4.6,4.6,54,0.00,CLR,,0.00,WeatherDisplay:10.37,2013-03-23 13:31:00,
2013-03-23 09:36:00,37.2,21.6,29.78,WSW,248,4.6,4.6,53,0.00,CLR,,0.00,WeatherDisplay:10.37,2013-03-23 13:36:00,
2013-03-23 09:41:00,37.2,21.2,29.78,West,270,5.8,5.8,52,0.00,CLR,,0.00,WeatherDisplay:10.37,2013-03-23 13:41:00,
2013-03-23 09:46:00,37.6,21.5,29.78,West,270,4.6,4.6,52,0.00,CLR,,0.00,WeatherDisplay:10.37,2013-03-23 13:46:00,
2013-03-23 09:51:00,37.8,22.1,29.78,WNW,292,4.6,4.6,53,0.00,CLR,,0.00,WeatherDisplay:10.37,2013-03-23 13:51:00,
2013-03-23 09:56:00,37.9,21.9,29.78,NNW,338,3.6,3.6,52,0.00,CLR,,0.00,WeatherDisplay:10.37,2013-03-23 13:56:00,
2013-03-23 10:01:00,38.1,22.0,29.78,SW,225,2.9,2.9,52,0.00,CLR,,0.00,WeatherDisplay:10.37,2013-03-23 14:01:00,
2013-03-23 10:06:00,38.5,21.9,29.77,WNW,292,4.6,4.6,51,0.00,CLR,,0.00,WeatherDisplay:10.37,2013-03-23 14:06:00,
2013-03-23 10:11:00,38.5,21.9,29.77,WSW,248,6.9,6.9,51,0.00,CLR,,0.00,WeatherDisplay:10.37,2013-03-23 14:11:00,
2013-03-23 10:16:00,39.0,22.9,29.77,NW,315,3.5,3.5,52,0.00,CLR,,0.00,WeatherDisplay:10.37,2013-03-23 14:16:00,
2013-03-23 10:21:00,39.2,23.0,29.77,WSW,248,4.6,4.6,52,0.00,CLR,,0.00,WeatherDisplay:10.37,2013-03-23 14:21:00,
2013-03-23 10:26:00,39.6,22.4,29.77,West,270,5.8,5.8,50,0.00,CLR,,0.00,WeatherDisplay:10.37,2013-03-23 14:26:00,
2013-03-23 10:31:00,39.6,22.4,29.77,NNW,338,4.6,4.6,50,0.00,CLR,,0.00,WeatherDisplay:10.37,2013-03-23 14:31:00,
2013-03-23 10:36:00,39.7,22.6,29.77,NW,315,5.8,5.8,50,0.00,CLR,,0.00,WeatherDisplay:10.37,2013-03-23 14:36:00,
2013-03-23 10:41:00,39.7,22.6,29.77,West,270,4.6,4.6,50,0.00,CLR,,0.00,WeatherDisplay:10.37,2013-03-23 14:41:00,
2013-03-23 10:46:00,39.9,22.3,29.76,SSW,202,5.8,5.8,49,0.00,CLR,,0.00,WeatherDisplay:10.37,2013-03-23 14:46:00,
2013-03-23 10:51:00,39.9,22.3,29.76,NNW,338,4.6,4.6,49,0.00,CLR,,0.00,WeatherDisplay:10.37,2013-03-23 14:51:00,
2013-03-23 10:56:00,40.3,22.1,29.77,NNW,338,5.8,5.8,48,0.00,CLR,,0.00,WeatherDisplay:10.37,2013-03-23 14:56:00,
2013-03-23 11:01:00,40.5,22.8,29.77,SSW,202,4.6,4.6,49,0.00,CLR,,0.00,WeatherDisplay:10.37,2013-03-23 15:01:00,
2013-03-23 11:07:00,40.8,23.1,29.77,West,270,5.8,5.8,49,0.00,CLR,,0.00,WeatherDisplay:10.37,2013-03-23 15:07:00,
2013-03-23 11:12:00,41.0,22.3,29.77,North,0,4.6,4.6,47,0.00,CLR,,0.00,WeatherDisplay:10.37,2013-03-23 15:12:00,
2013-03-23 11:17:00,41.4,23.1,29.77,SW,225,4.6,4.6,48,0.00,CLR,,0.00,WeatherDisplay:10.37,2013-03-23 15:17:00,
2013-03-23 11:22:00,41.7,22.9,29.77,West,270,4.6,4.6,47,0.00,CLR,,0.00,WeatherDisplay:10.37,2013-03-23 15:22:00,
2013-03-23 11:27:00,41.7,21.9,29.77,WNW,292,4.7,4.7,45,0.00,CLR,,0.00,WeatherDisplay:10.37,2013-03-23 15:27:00,
2013-03-23 11:32:00,41.9,23.1,29.77,NW,315,3.5,3.5,47,0.00,CLR,,0.00,WeatherDisplay:10.37,2013-03-23 15:32:00,
2013-03-23 11:37:00,42.3,22.9,29.77,SW,225,5.8,5.8,46,0.00,CLR,,0.00,WeatherDisplay:10.37,2013-03-23 15:37:00,
2013-03-23 11:42:00,42.1,21.7,29.78,WNW,292,3.6,3.6,44,0.00,CLR,,0.00,WeatherDisplay:10.37,2013-03-23 15:42:00,
2013-03-23 11:48:00,42.3,21.9,29.77,WSW,248,4.6,4.6,44,0.00,CLR,,0.00,WeatherDisplay:10.37,2013-03-23 15:48:00,
2013-03-23 11:53:00,42.6,22.2,29.77,NW,315,6.0,6.0,44,0.00,CLR,,0.00,WeatherDisplay:10.37,2013-03-23 15:53:00,
2013-03-23 11:58:00,42.6,22.2,29.77,West,270,4.6,4.6,44,0.00,CLR,,0.00,WeatherDisplay:10.37,2013-03-23 15:58:00,
2013-03-23 12:03:00,42.8,22.4,29.78,West,270,4.6,4.6,44,0.00,CLR,,0.00,WeatherDisplay:10.37,2013-03-23 16:03:00,
2013-03-23 12:08:00,42.8,21.8,29.78,WSW,248,4.6,4.6,43,0.00,CLR,,0.00,WeatherDisplay:10.37,2013-03-23 16:08:00,
2013-03-23 12:13:00,42.8,21.8,29.78,NW,315,4.6,4.6,43,0.00,CLR,,0.00,WeatherDisplay:10.37,2013-03-23 16:13:00,
2013-03-23 12:18:00,42.6,21.7,29.78,WNW,292,8.1,8.1,43,0.00,CLR,,0.00,WeatherDisplay:10.37,2013-03-23 16:18:00,
2013-03-23 12:23:00,43.0,22.5,29.77,North,0,4.6,4.6,44,0.00,CLR,,0.00,WeatherDisplay:10.37,2013-03-23 16:23:00,
2013-03-23 12:28:00,43.2,22.1,29.77,West,270,4.6,4.6,43,0.00,CLR,,0.00,WeatherDisplay:10.37,2013-03-23 16:28:00,
2013-03-23 12:33:00,43.3,22.3,29.77,SW,225,4.6,4.6,43,0.00,CLR,,0.00,WeatherDisplay:10.37,2013-03-23 16:33:00,
2013-03-23 12:38:00,43.5,23.0,29.77,WSW,248,3.5,3.5,44,0.00,CLR,,0.00,WeatherDisplay:10.37,2013-03-23 16:38:00,
2013-03-23 12:43:00,44.1,22.4,29.77,WNW,292,5.8,5.8,42,0.00,CLR,,0.00,WeatherDisplay:10.37,2013-03-23 16:43:00,
2013-03-23 12:48:00,44.1,22.4,29.77,WNW,292,4.6,4.9,42,0.00,CLR,,0.00,WeatherDisplay:10.37,2013-03-23 16:48:00,
2013-03-23 12:53:00,43.9,22.2,29.76,NW,315,4.6,4.6,42,0.00,CLR,,0.00,WeatherDisplay:10.37,2013-03-23 16:53:00,
2013-03-23 12:58:00,43.7,22.1,29.76,ENE,68,5.8,5.8,42,0.00,CLR,,0.00,WeatherDisplay:10.37,2013-03-23 16:58:00,
2013-03-23 13:03:00,43.5,21.9,29.76,North,0,4.6,5.4,42,0.00,CLR,,0.00,WeatherDisplay:10.37,2013-03-23 17:03:00,
2013-03-23 13:08:00,43.9,22.2,29.76,WSW,248,3.5,3.5,42,0.00,CLR,,0.00,WeatherDisplay:10.37,2013-03-23 17:08:00,
2013-03-23 13:13:00,44.4,23.3,29.76,NW,315,2.3,2.3,43,0.00,CLR,,0.00,WeatherDisplay:10.37,2013-03-23 17:13:00,
2013-03-23 13:18:00,45.0,22.6,29.76,NNE,22,5.8,5.8,41,0.00,CLR,,0.00,WeatherDisplay:10.37,2013-03-23 17:18:00,
2013-03-23 13:23:00,44.6,21.7,29.76,SW,225,3.5,3.5,40,0.00,CLR,,0.00,WeatherDisplay:10.37,2013-03-23 17:23:00,
2013-03-23 13:28:00,44.6,22.3,29.76,NW,315,3.5,3.5,41,0.00,CLR,,0.00,WeatherDisplay:10.37,2013-03-23 17:28:00,
2013-03-23 13:33:00,44.6,22.3,29.76,North,0,6.9,6.9,41,0.00,CLR,,0.00,WeatherDisplay:10.37,2013-03-23 17:33:00,
2013-03-23 13:38:00,44.8,23.1,29.76,West,270,3.6,3.6,42,0.00,CLR,,0.00,WeatherDisplay:10.37,2013-03-23 17:38:00,
2013-03-23 13:43:00,44.6,22.3,29.75,SW,225,5.8,5.8,41,0.00,CLR,,0.00,WeatherDisplay:10.37,2013-03-23 17:43:00,
2013-03-23 13:48:00,44.2,22.0,29.75,North,0,4.6,4.6,41,0.00,CLR,,0.00,WeatherDisplay:10.37,2013-03-23 17:48:00,
2013-03-23 13:53:00,45.0,23.2,29.75,NW,315,4.6,4.6,42,0.00,CLR,,0.00,WeatherDisplay:10.37,2013-03-23 17:53:00,
2013-03-23 13:58:00,46.2,23.2,29.75,NW,315,4.7,4.7,40,0.00,CLR,,0.00,WeatherDisplay:10.37,2013-03-23 17:58:00,
2013-03-23 14:03:00,46.4,22.1,29.75,SW,225,6.9,6.9,38,0.00,CLR,,0.00,WeatherDisplay:10.37,2013-03-23 18:03:00,
2013-03-23 14:08:00,45.3,20.5,29.75,North,0,5.8,5.8,37,0.00,CLR,,0.00,WeatherDisplay:10.37,2013-03-23 18:08:00,
2013-03-23 14:13:00,45.3,22.4,29.75,WSW,248,5.8,5.8,40,0.00,CLR,,0.00,WeatherDisplay:10.37,2013-03-23 18:13:00,
2013-03-23 14:18:00,45.0,21.5,29.74,WNW,292,3.5,3.5,39,0.00,CLR,,0.00,WeatherDisplay:10.37,2013-03-23 18:18:00,
2013-03-23 14:23:00,45.0,20.2,29.74,NW,315,6.9,6.9,37,0.00,CLR,,0.00,WeatherDisplay:10.37,2013-03-23 18:23:00,
2013-03-23 14:28:00,45.5,21.3,29.74,North,0,5.2,5.2,38,0.00,CLR,,0.00,WeatherDisplay:10.37,2013-03-23 18:28:00,
2013-03-23 14:33:00,45.1,21.0,29.74,ENE,68,5.8,5.8,38,0.00,CLR,,0.00,WeatherDisplay:10.37,2013-03-23 18:33:00,
2013-03-23 14:38:00,44.8,20.1,29.74,NNW,338,8.1,8.1,37,0.00,CLR,,0.00,WeatherDisplay:10.37,2013-03-23 18:38:00,
2013-03-23 14:43:00,44.8,20.7,29.74,NW,315,5.8,5.8,38,0.00,CLR,,0.00,WeatherDisplay:10.37,2013-03-23 18:43:00,
2013-03-23 14:48:00,45.0,20.8,29.74,NNW,338,5.8,5.8,38,0.00,CLR,,0.00,WeatherDisplay:10.37,2013-03-23 18:48:00,
2013-03-23 14:53:00,45.1,21.0,29.73,West,270,2.3,2.3,38,0.00,CLR,,0.00,WeatherDisplay:10.37,2013-03-23 18:53:00,
2013-03-23 14:58:00,46.0,21.2,29.74,North,0,3.5,5.2,37,0.00,CLR,,0.00,WeatherDisplay:10.37,2013-03-23 18:58:00,
2013-03-23 15:03:00,45.7,20.9,29.73,NW,315,4.7,4.7,37,0.00,CLR,,0.00,WeatherDisplay:10.37,2013-03-23 19:03:00,
2013-03-23 15:08:00,45.9,21.0,29.73,WSW,248,4.9,4.9,37,0.00,CLR,,0.00,WeatherDisplay:10.37,2013-03-23 19:08:00,
2013-03-23 15:13:00,45.5,19.4,29.73,SSW,202,8.1,8.1,35,0.00,CLR,,0.00,WeatherDisplay:10.37,2013-03-23 19:13:00,
2013-03-23 15:18:00,45.3,21.2,29.73,WSW,248,4.6,4.6,38,0.00,CLR,,0.00,WeatherDisplay:10.37,2013-03-23 19:18:00,
2013-03-23 15:23:00,45.9,21.7,29.73,WNW,292,6.9,6.9,38,0.00,CLR,,0.00,WeatherDisplay:10.37,2013-03-23 19:23:00,
2013-03-23 15:28:00,46.0,21.2,29.73,WNW,292,4.7,4.7,37,0.00,CLR,,0.00,WeatherDisplay:10.37,2013-03-23 19:28:00,
2013-03-23 15:33:00,45.9,21.7,29.73,WSW,248,4.6,4.6,38,0.00,CLR,,0.00,WeatherDisplay:10.37,2013-03-23 19:33:00,
2013-03-23 15:38:00,45.7,21.5,29.73,WNW,292,5.8,5.8,38,0.00,CLR,,0.00,WeatherDisplay:10.37,2013-03-23 19:38:00,
2013-03-23 15:43:00,46.0,21.8,29.73,WNW,292,5.2,5.2,38,0.00,CLR,,0.00,WeatherDisplay:10.37,2013-03-23 19:43:00,
2013-03-23 15:48:00,46.2,21.3,29.73,NE,45,6.9,6.9,37,0.00,CLR,,0.00,WeatherDisplay:10.37,2013-03-23 19:48:00,
2013-03-23 15:53:00,46.2,22.0,29.73,SSE,158,3.5,3.5,38,0.00,CLR,,0.00,WeatherDisplay:10.37,2013-03-23 19:53:00,
2013-03-23 15:58:00,45.7,20.9,29.73,NNE,22,4.7,4.7,37,0.00,CLR,,0.00,WeatherDisplay:10.37,2013-03-23 19:58:00,
2013-03-23 16:03:00,45.1,21.0,29.73,NNW,338,4.6,4.6,38,0.00,CLR,,0.00,WeatherDisplay:10.37,2013-03-23 20:03:00,
2013-03-23 16:08:00,44.8,20.1,29.73,West,270,4.6,4.6,37,0.00,CLR,,0.00,WeatherDisplay:10.37,2013-03-23 20:08:00,
2013-03-23 16:13:00,44.4,19.7,29.73,NNE,22,5.6,5.6,37,0.00,CLR,,0.00,WeatherDisplay:10.37,2013-03-23 20:13:00,
2013-03-23 16:18:00,44.2,20.2,29.73,SSW,202,6.9,6.9,38,0.00,CLR,,0.00,WeatherDisplay:10.37,2013-03-23 20:18:00,
2013-03-23 16:23:00,44.6,20.5,29.73,WNW,292,2.3,2.3,38,0.00,CLR,,0.00,WeatherDisplay:10.37,2013-03-23 20:23:00,
2013-03-23 16:28:00,45.3,20.5,29.73,SSW,202,4.6,4.6,37,0.00,CLR,,0.00,WeatherDisplay:10.37,2013-03-23 20:28:00,
2013-03-23 16:33:00,45.3,20.5,29.73,NW,315,4.6,4.9,37,0.00,CLR,,0.00,WeatherDisplay:10.37,2013-03-23 20:33:00,
2013-03-23 16:38:00,45.3,20.5,29.73,NNE,22,3.5,3.5,37,0.00,CLR,,0.00,WeatherDisplay:10.37,2013-03-23 20:38:00,
2013-03-23 16:43:00,45.3,20.5,29.74,South,180,4.6,4.6,37,0.00,CLR,,0.00,WeatherDisplay:10.37,2013-03-23 20:43:00,
2013-03-23 16:48:00,45.0,20.2,29.74,NNE,22,3.5,3.5,37,0.00,CLR,,0.00,WeatherDisplay:10.37,2013-03-23 20:48:00,
2013-03-23 16:53:00,45.3,20.5,29.74,West,270,4.6,4.6,37,0.00,CLR,,0.00,WeatherDisplay:10.37,2013-03-23 20:53:00,
2013-03-23 16:59:00,45.3,21.2,29.74,West,270,5.6,5.6,38,0.00,CLR,,0.00,WeatherDisplay:10.37,2013-03-23 20:59:00,
2013-03-23 17:04:00,45.0,20.2,29.74,NW,315,4.6,4.6,37,0.00,CLR,,0.00,WeatherDisplay:10.37,2013-03-23 21:04:00,
2013-03-23 17:09:00,45.0,20.2,29.74,SSW,202,4.6,4.6,37,0.00,CLR,,0.00,WeatherDisplay:10.37,2013-03-23 21:09:00,
2013-03-23 17:14:00,45.0,20.2,29.74,North,0,6.9,6.9,37,0.00,CLR,,0.00,WeatherDisplay:10.37,2013-03-23 21:14:00,
2013-03-23 17:19:00,45.1,20.4,29.74,NW,315,3.5,3.5,37,0.00,CLR,,0.00,WeatherDisplay:10.37,2013-03-23 21:19:00,
2013-03-23 17:24:00,46.2,22.0,29.74,SSW,202,5.8,5.8,38,0.00,CLR,,0.00,WeatherDisplay:10.37,2013-03-23 21:24:00,
2013-03-23 17:29:00,46.4,21.5,29.74,NW,315,4.6,4.6,37,0.00,CLR,,0.00,WeatherDisplay:10.37,2013-03-23 21:29:00,
2013-03-23 17:34:00,46.0,20.5,29.75,NNW,338,5.8,5.8,36,0.00,CLR,,0.00,WeatherDisplay:10.37,2013-03-23 21:34:00,
2013-03-23 17:39:00,46.0,20.5,29.75,West,270,4.7,4.7,36,0.00,CLR,,0.00,WeatherDisplay:10.37,2013-03-23 21:39:00,
2013-03-23 17:44:00,46.4,21.5,29.75,WSW,248,8.1,8.1,37,0.00,CLR,,0.00,WeatherDisplay:10.37,2013-03-23 21:44:00,
2013-03-23 17:49:00,46.8,21.8,29.75,SSE,158,4.7,4.7,37,0.00,CLR,,0.00,WeatherDisplay:10.37,2013-03-23 21:49:00,
2013-03-23 17:54:00,46.4,20.2,29.75,ESE,112,5.8,5.8,35,0.00,CLR,,0.00,WeatherDisplay:10.37,2013-03-23 21:54:00,
2013-03-23 17:59:00,46.0,20.5,29.75,West,270,4.6,4.6,36,0.00,CLR,,0.00,WeatherDisplay:10.37,2013-03-23 21:59:00,
2013-03-23 18:04:00,45.5,20.1,29.75,SW,225,5.8,5.8,36,0.00,CLR,,0.00,WeatherDisplay:10.37,2013-03-23 22:04:00,
2013-03-23 18:09:00,45.1,19.7,29.75,West,270,6.9,6.9,36,0.00,CLR,,0.00,WeatherDisplay:10.37,2013-03-23 22:09:00,
2013-03-23 18:14:00,44.8,20.1,29.76,West,270,5.8,5.8,37,0.00,CLR,,0.00,WeatherDisplay:10.37,2013-03-23 22:14:00,
2013-03-23 18:19:00,44.2,20.2,29.76,WSW,248,5.4,5.4,38,0.00,CLR,,0.00,WeatherDisplay:10.37,2013-03-23 22:19:00,
2013-03-23 18:24:00,44.1,20.0,29.76,SW,225,3.5,3.5,38,0.00,CLR,,0.00,WeatherDisplay:10.37,2013-03-23 22:24:00,
2013-03-23 18:29:00,44.1,20.0,29.76,WSW,248,3.5,3.5,38,0.00,CLR,,0.00,WeatherDisplay:10.37,2013-03-23 22:29:00,
2013-03-23 18:34:00,44.1,20.0,29.77,WSW,248,4.6,4.6,38,0.00,CLR,,0.00,WeatherDisplay:10.37,2013-03-23 22:34:00,
2013-03-23 18:39:00,44.1,20.0,29.77,NW,315,4.6,4.6,38,0.00,CLR,,0.00,WeatherDisplay:10.37,2013-03-23 22:39:00,
2013-03-23 18:44:00,43.7,19.7,29.77,WSW,248,5.8,5.8,38,0.00,CLR,,0.00,WeatherDisplay:10.37,2013-03-23 22:44:00,
2013-03-23 18:49:00,43.7,19.7,29.77,South,180,4.3,4.3,38,0.00,CLR,,0.00,WeatherDisplay:10.37,2013-03-23 22:49:00,
2013-03-23 18:54:00,43.5,19.6,29.78,WNW,292,2.4,2.4,38,0.00,CLR,,0.00,WeatherDisplay:10.37,2013-03-23 22:54:00,
2013-03-23 18:59:00,43.3,19.4,29.77,West,270,2.3,2.3,38,0.00,CLR,,0.00,WeatherDisplay:10.37,2013-03-23 22:59:00,
2013-03-23 19:04:00,43.2,19.8,29.78,NW,315,3.3,3.3,39,0.00,CLR,,0.00,WeatherDisplay:10.37,2013-03-23 23:04:00,
2013-03-23 19:09:00,42.8,19.5,29.78,NNW,338,5.8,5.8,39,0.00,CLR,,0.00,WeatherDisplay:10.37,2013-03-23 23:09:00,
2013-03-23 19:14:00,42.4,19.2,29.78,West,270,3.5,3.5,39,0.00,CLR,,0.00,WeatherDisplay:10.37,2013-03-23 23:14:00,
2013-03-23 19:19:00,42.3,19.0,29.78,West,270,3.5,3.5,39,0.00,CLR,,0.00,WeatherDisplay:10.37,2013-03-23 23:19:00,
2013-03-23 19:24:00,42.1,19.5,29.78,West,270,4.6,4.6,40,0.00,CLR,,0.00,WeatherDisplay:10.37,2013-03-23 23:24:00,
2013-03-23 19:29:00,41.9,19.3,29.79,NNW,338,5.6,5.6,40,0.00,CLR,,0.00,WeatherDisplay:10.37,2013-03-23 23:29:00,
2013-03-23 19:34:00,41.9,19.3,29.79,WNW,292,4.6,4.6,40,0.00,CLR,,0.00,WeatherDisplay:10.37,2013-03-23 23:34:00,
2013-03-23 19:39:00,41.7,19.7,29.79,NNW,338,4.6,4.6,41,0.00,CLR,,0.00,WeatherDisplay:10.37,2013-03-23 23:39:00,
2013-03-23 19:44:00,41.4,19.4,29.79,North,0,3.5,3.5,41,0.00,CLR,,0.00,WeatherDisplay:10.37,2013-03-23 23:44:00,
2013-03-23 19:49:00,41.2,19.8,29.80,North,0,2.3,2.3,42,0.00,CLR,,0.00,WeatherDisplay:10.37,2013-03-23 23:49:00,
2013-03-23 19:54:00,41.0,19.6,29.80,West,270,4.9,4.9,42,0.00,CLR,,0.00,WeatherDisplay:10.37,2013-03-23 23:54:00,
2013-03-23 19:59:00,41.0,19.6,29.80,WNW,292,3.5,3.5,42,0.00,CLR,,0.00,WeatherDisplay:10.37,2013-03-23 23:59:00,
2013-03-23 20:04:00,40.8,20.0,29.80,WNW,292,4.3,4.3,43,0.00,CLR,,0.00,WeatherDisplay:10.37,2013-03-24 00:04:00,
2013-03-23 20:09:00,40.6,19.9,29.80,WSW,248,4.6,4.6,43,0.00,CLR,,0.00,WeatherDisplay:10.37,2013-03-24 00:09:00,
2013-03-23 20:14:00,40.5,19.7,29.81,NW,315,4.6,4.6,43,0.00,CLR,,0.00,WeatherDisplay:10.37,2013-03-24 00:14:00,
2013-03-23 20:19:00,40.5,19.1,29.81,NW,315,3.5,3.5,42,0.00,CLR,,0.00,WeatherDisplay:10.37,2013-03-24 00:19:00,
2013-03-23 20:24:00,40.3,19.0,29.81,SW,225,4.6,4.6,42,0.00,CLR,,0.00,WeatherDisplay:10.37,2013-03-24 00:24:00,
2013-03-23 20:29:00,40.3,19.0,29.81,NW,315,3.5,3.5,42,0.00,CLR,,0.00,WeatherDisplay:10.37,2013-03-24 00:29:00,
2013-03-23 20:34:00,39.9,19.2,29.82,NNW,338,5.8,5.8,43,0.00,CLR,,0.00,WeatherDisplay:10.37,2013-03-24 00:34:00,
2013-03-23 20:39:00,39.9,18.7,29.82,West,270,2.3,2.3,42,0.00,CLR,,0.00,WeatherDisplay:10.37,2013-03-24 00:39:00,
2013-03-23 20:44:00,39.9,19.2,29.82,NNW,338,4.6,4.6,43,0.00,CLR,,0.00,WeatherDisplay:10.37,2013-03-24 00:44:00,
2013-03-23 20:49:00,39.7,19.0,29.82,North,0,3.5,3.5,43,0.00,CLR,,0.00,WeatherDisplay:10.37,2013-03-24 00:49:00,
2013-03-23 20:54:00,39.6,18.9,29.82,WNW,292,4.6,4.6,43,0.00,CLR,,0.00,WeatherDisplay:10.37,2013-03-24 00:54:00,
2013-03-23 20:59:00,39.4,18.7,29.82,WNW,292,2.3,2.3,43,0.00,CLR,,0.00,WeatherDisplay:10.37,2013-03-24 00:59:00,
2013-03-23 21:04:00,39.4,19.3,29.82,WNW,292,2.3,2.3,44,0.00,CLR,,0.00,WeatherDisplay:10.37,2013-03-24 01:04:00,
2013-03-23 21:09:00,39.2,19.1,29.82,West,270,5.8,5.8,44,0.00,CLR,,0.00,WeatherDisplay:10.37,2013-03-24 01:09:00,
2013-03-23 21:14:00,39.2,19.1,29.82,WSW,248,2.3,2.3,44,0.00,CLR,,0.00,WeatherDisplay:10.37,2013-03-24 01:14:00,
2013-03-23 21:19:00,39.0,18.9,29.82,NE,45,4.6,4.6,44,0.00,CLR,,0.00,WeatherDisplay:10.37,2013-03-24 01:19:00,
2013-03-23 21:24:00,38.8,18.8,29.82,WSW,248,5.8,5.8,44,0.00,CLR,,0.00,WeatherDisplay:10.37,2013-03-24 01:24:00,
2013-03-23 21:29:00,39.0,18.9,29.82,SW,225,5.8,5.8,44,0.00,CLR,,0.00,WeatherDisplay:10.37,2013-03-24 01:29:00,
2013-03-23 21:34:00,38.8,18.8,29.82,NNW,338,3.5,3.5,44,0.00,CLR,,0.00,WeatherDisplay:10.37,2013-03-24 01:34:00,
2013-03-23 21:39:00,38.8,18.8,29.82,NNW,338,3.5,3.5,44,0.00,CLR,,0.00,WeatherDisplay:10.37,2013-03-24 01:39:00,
2013-03-23 21:44:00,38.5,19.0,29.82,West,270,4.6,4.6,45,0.00,CLR,,0.00,WeatherDisplay:10.37,2013-03-24 01:44:00,
2013-03-23 21:49:00,38.5,19.0,29.83,NNW,338,4.6,4.6,45,0.00,CLR,,0.00,WeatherDisplay:10.37,2013-03-24 01:49:00,
2013-03-23 21:54:00,38.3,18.8,29.82,WNW,292,3.5,3.5,45,0.00,CLR,,0.00,WeatherDisplay:10.37,2013-03-24 01:54:00,
2013-03-23 21:59:00,38.1,18.6,29.83,North,0,3.5,3.5,45,0.00,CLR,,0.00,WeatherDisplay:10.37,2013-03-24 01:59:00,
2013-03-23 22:04:00,38.1,18.6,29.83,WNW,292,2.3,2.3,45,0.00,CLR,,0.00,WeatherDisplay:10.37,2013-03-24 02:04:00,
2013-03-23 22:09:00,37.9,18.5,29.83,North,0,3.5,3.5,45,0.00,CLR,,0.00,WeatherDisplay:10.37,2013-03-24 02:09:00,
2013-03-23 22:14:00,37.8,18.3,29.83,North,0,3.5,3.5,45,0.00,CLR,,0.00,WeatherDisplay:10.37,2013-03-24 02:14:00,
2013-03-23 22:19:00,37.8,18.8,29.83,WNW,292,3.8,3.8,46,0.00,CLR,,0.00,WeatherDisplay:10.37,2013-03-24 02:19:00,
2013-03-23 22:24:00,37.8,18.3,29.83,WNW,292,2.3,2.3,45,0.00,CLR,,0.00,WeatherDisplay:10.37,2013-03-24 02:24:00,
2013-03-23 22:29:00,37.8,18.3,29.83,WSW,248,2.9,2.9,45,0.00,CLR,,0.00,WeatherDisplay:10.37,2013-03-24 02:29:00,
2013-03-23 22:34:00,37.6,18.6,29.83,NNW,338,4.6,4.6,46,0.00,CLR,,0.00,WeatherDisplay:10.37,2013-03-24 02:34:00,
2013-03-23 22:39:00,37.4,18.5,29.83,NNW,338,3.5,3.5,46,0.00,CLR,,0.00,WeatherDisplay:10.37,2013-03-24 02:39:00,
2013-03-23 22:44:00,37.4,18.5,29.83,WNW,292,2.3,2.3,46,0.00,CLR,,0.00,WeatherDisplay:10.37,2013-03-24 02:44:00,
2013-03-23 22:49:00,37.2,18.8,29.84,NW,315,2.3,2.3,47,0.00,CLR,,0.00,WeatherDisplay:10.37,2013-03-24 02:49:00,
2013-03-23 22:54:00,37.0,18.7,29.84,North,0,2.3,2.3,47,0.00,CLR,,0.00,WeatherDisplay:10.37,2013-03-24 02:54:00,
2013-03-23 22:59:00,37.0,18.7,29.84,NNW,338,2.4,2.4,47,0.00,CLR,,0.00,WeatherDisplay:10.37,2013-03-24 02:59:00,
2013-03-23 23:04:00,36.9,18.5,29.84,North,0,1.8,1.8,47,0.00,CLR,,0.00,WeatherDisplay:10.37,2013-03-24 03:04:00,
2013-03-23 23:09:00,36.9,19.0,29.84,West,270,2.3,2.3,48,0.00,CLR,,0.00,WeatherDisplay:10.37,2013-03-24 03:09:00,
2013-03-23 23:14:00,36.9,19.0,29.85,WNW,292,3.5,3.5,48,0.00,CLR,,0.00,WeatherDisplay:10.37,2013-03-24 03:14:00,
2013-03-23 23:19:00,36.7,18.8,29.84,WSW,248,4.6,4.6,48,0.00,CLR,,0.00,WeatherDisplay:10.37,2013-03-24 03:19:00,
2013-03-23 23:24:00,36.5,18.6,29.84,NE,45,1.1,1.1,48,0.00,CLR,,0.00,WeatherDisplay:10.37,2013-03-24 03:24:00,
2013-03-23 23:29:00,36.3,19.0,29.84,NW,315,1.1,1.1,49,0.00,CLR,,0.00,WeatherDisplay:10.37,2013-03-24 03:29:00,
2013-03-23 23:34:00,36.3,19.0,29.84,WNW,292,4.6,4.6,49,0.00,CLR,,0.00,WeatherDisplay:10.37,2013-03-24 03:34:00,
2013-03-23 23:39:00,36.1,18.8,29.85,NW,315,1.1,1.1,49,0.00,CLR,,0.00,WeatherDisplay:10.37,2013-03-24 03:39:00,
2013-03-23 23:44:00,36.0,18.6,29.85,NNE,22,1.1,1.1,49,0.00,CLR,,0.00,WeatherDisplay:10.37,2013-03-24 03:44:00,
2013-03-23 23:49:00,35.8,18.9,29.85,WSW,248,2.3,2.3,50,0.00,CLR,,0.00,WeatherDisplay:10.37,2013-03-24 03:49:00,
2013-03-23 23:54:00,35.6,18.8,29.85,West,270,1.1,1.1,50,0.00,CLR,,0.00,WeatherDisplay:10.37,2013-03-24 03:54:00,